PAKTPAKW

Guest
Details From PAKT - Ketchikan Intl
To PAKW - Klawock
Flight Number -
Tags Generated
Created
Modified
Stats Distance 48 nm / 89 km
Max Altitude 0 ft / 0 m
Waypoints 2
Social Downloads 5
Likes 0
Share VATSIM

Download

Looking for another format? Having issues loading an existing format? Contact us
Advertisement - Login to hide

Notes

Generated

Route

PAKT PAKW

ID Type Via Altitude Latitude Longitude Leg Dist Tot Dist Heading (true) Name
O PAKT APT - 0 ft / 0 m 55.36288˚ -131.72634˚ - 0 nm - -
O PAKW APT - 0 ft / 0 m 55.57392˚ -133.08362˚ 47 nm 47 nm 286° / 285° -

Altitude Profile

Advertisement - Login to hide

PAKT

Details ICAO PAKT (KTN)
Name KETCHIKAN INTL
Region USA (Alaska)
Timezone Unknown (UTC+0.0)
Stats Elevation 88 ft / 27 m (AMSL)
Location 55.355545° -131.713737°
Runways 1
Magnetic Variation 18.534° E

METAR

PAKT 140453Z 13004KT 10SM FEW045 OVC095 08/07 A3022

Decode

TAF

PAKT 132336Z 1400/1424 15010KT 6SM -RA OVC020 WS020/15030KT FM140300 15012G20KT 6SM -RA OVC030 WS020/15040KT FM141000 14020G32KT 3SM RA BR OVC015 WS020/16045KT AMD LTD TO CLD VIS AND WIND 1406/1415

Decode

Departure Runways

ID Width Length Bearing (true) Bearing (mag) Surface Threshold Offset Overrun Length
11 150 ft / 46 m 7,485 ft / 2,281 m 135.66° 117.13° Asphalt 0 ft / 0 m 200 ft / 61 m
29 150 ft / 46 m 7,485 ft / 2,281 m 315.68° 297.15° Asphalt 0 ft / 0 m 100 ft / 30 m

PAKW

Details ICAO PAKW (KLW)
Name KLAWOCK
Region USA (Alaska)
Timezone Unknown (UTC+0.0)
Stats Elevation 80 ft / 24 m (AMSL)
Location 55.579232° -133.075997°
Runways 1
Magnetic Variation 18.548° E

METAR

PAKW 140453Z AUTO VRB05KT 10SM -RA OVC080 09/05 A3011 RMK AO2 SLP197 P0001 T00940050 TSNO

Decode

TAF

PAKW 132336Z 1400/1424 06007KT P6SM -RA OVC050 WS020/16040KT FM140900 14010G20KT 4SM RA BR OVC025 WS020/15035KT FM141300 14010G20KT 4SM RA BR OVC015 WS020/17035KT AMD LTD TO CLD VIS AND WIND

Decode

Destination Runways

ID Width Length Bearing (true) Bearing (mag) Surface Threshold Offset Overrun Length
02 100 ft / 30 m 4,991 ft / 1,521 m 39.06° 20.51° Asphalt 0 ft / 0 m 0 ft / 0 m
20 100 ft / 30 m 4,991 ft / 1,521 m 219.07° 200.52° Asphalt 0 ft / 0 m 0 ft / 0 m

Popular Alternatives